Time;durP1;ratioP1;P1;durP2;ratioP2;P2;SDS_P1;SDS_P2;PMS_P1;PMS_P2;Temp;Humidity;BMP_temperature;BMP_pressure;BME280_temperature;BME280_humidity;BME280_pressure;Samples;Min_cycle;Max_cycle;Signal;HPM_P1;HPM_P2
2022/04/21 00:00:21;;;;;;;5.97;3.38;;;103.20;2227.20;;;;;;5031171;28;20116;-55
2022/04/21 00:02:47;;;;;;;16.70;6.35;;;103.20;2227.20;;;;;;5033162;28;20033;-54
2022/04/21 00:05:13;;;;;;;8.65;4.85;;;103.10;2227.20;;;;;;5033086;28;20123;-52
2022/04/21 00:07:39;;;;;;;5.63;3.75;;;103.10;2227.20;;;;;;5033054;28;20029;-53
2022/04/21 00:10:07;;;;;;;4.93;2.97;;;103.00;2227.20;;;;;;5032744;28;20036;-53
2022/04/21 00:12:34;;;;;;;4.80;3.15;;;103.00;2227.20;;;;;;5032808;28;20033;-53
2022/04/21 00:15:01;;;;;;;7.78;6.05;;;103.00;2227.20;;;;;;5032976;28;20037;-53
2022/04/21 00:17:27;;;;;;;9.65;6.60;;;103.00;2227.20;;;;;;5032821;28;20045;-53
2022/04/21 00:19:52;;;;;;;7.45;5.00;;;102.90;2227.20;;;;;;5032976;28;20379;-54
2022/04/21 00:25:03;;;;;;;9.27;5.20;;;102.90;2227.20;;;;;;5032872;28;20080;-54
2022/04/21 00:27:29;;;;;;;8.65;4.47;;;102.90;2227.20;;;;;;5032834;28;20116;-53
2022/04/21 00:29:56;;;;;;;8.95;6.07;;;102.90;2227.20;;;;;;5032467;28;20071;-53
2022/04/21 00:32:22;;;;;;;9.95;4.55;;;102.90;2227.20;;;;;;5032490;28;20377;-53
2022/04/21 00:34:47;;;;;;;7.97;3.33;;;102.80;2227.20;;;;;;5032654;28;20056;-53
2022/04/21 00:37:13;;;;;;;5.25;3.35;;;102.80;2227.20;;;;;;5032331;28;20056;-53
2022/04/21 00:39:39;;;;;;;3.10;2.28;;;102.80;2227.20;;;;;;5032750;28;20104;-52
2022/04/21 00:42:05;;;;;;;5.13;3.97;;;102.70;2227.20;;;;;;5032365;28;20402;-53
2022/04/21 00:44:31;;;;;;;6.38;3.90;;;102.80;2227.20;;;;;;5032318;28;20029;-54
2022/04/21 00:47:02;;;;;;;7.47;4.75;;;102.80;2227.20;;;;;;5032340;28;20038;-53
2022/04/21 00:49:30;;;;;;;5.38;3.80;;;102.70;2227.20;;;;;;5032622;28;20029;-52
2022/04/21 00:51:58;;;;;;;6.18;3.33;;;102.70;2227.20;;;;;;5032263;28;20104;-53
2022/04/21 00:54:24;;;;;;;4.15;3.00;;;102.60;2227.20;;;;;;5032022;28;20032;-51
2022/04/21 00:56:50;;;;;;;4.97;3.03;;;102.60;2227.20;;;;;;5032265;28;20026;-53
2022/04/21 00:59:16;;;;;;;5.47;3.47;;;102.70;2227.20;;;;;;5032094;28;20046;-53
2022/04/21 01:04:28;;;;;;;8.45;4.35;;;102.60;2227.20;;;;;;5032248;28;20103;-54
2022/04/21 01:06:55;;;;;;;4.18;3.47;;;102.60;2227.20;;;;;;5031839;28;20033;-53
2022/04/21 01:09:21;;;;;;;8.30;4.47;;;102.70;2227.20;;;;;;5031119;28;20132;-54
2022/04/21 01:11:49;;;;;;;7.72;3.85;;;102.70;2227.20;;;;;;5031523;28;20371;-53
2022/04/21 01:14:15;;;;;;;5.47;2.13;;;102.70;2227.20;;;;;;5031686;28;20033;-53
2022/04/21 01:16:41;;;;;;;4.22;3.58;;;102.70;2227.20;;;;;;5031641;28;20029;-54
2022/04/21 01:19:07;;;;;;;3.85;3.20;;;102.80;2227.20;;;;;;5031876;28;20044;-53
2022/04/21 01:21:32;;;;;;;7.35;3.42;;;102.90;2227.20;;;;;;5031618;28;20026;-53
2022/04/21 01:23:58;;;;;;;7.93;4.28;;;102.80;2227.20;;;;;;5031745;28;20025;-51
2022/04/21 01:26:30;;;;;;;5.85;3.88;;;102.80;2227.20;;;;;;5031491;28;20529;-52
2022/04/21 01:28:57;;;;;;;13.68;6.70;;;102.80;2227.20;;;;;;5031585;28;20032;-53
2022/04/21 01:31:23;;;;;;;5.70;3.38;;;102.80;2227.20;;;;;;5031381;28;20025;-54
2022/04/21 01:33:49;;;;;;;5.20;3.83;;;102.80;2227.20;;;;;;5031380;28;20055;-53
2022/04/21 01:36:15;;;;;;;4.30;3.03;;;102.90;2227.20;;;;;;5031493;28;20038;-53
2022/04/21 01:41:25;;;;;;;7.32;4.57;;;102.80;2227.20;;;;;;5031547;28;20056;-53
2022/04/21 01:43:51;;;;;;;11.07;4.10;;;102.80;2227.20;;;;;;5031289;28;20480;-54
2022/04/21 01:46:17;;;;;;;7.18;5.07;;;102.80;2227.20;;;;;;5031583;28;20048;-53
2022/04/21 01:48:42;;;;;;;7.45;4.47;;;102.90;2227.20;;;;;;5031130;28;20053;-53
2022/04/21 01:51:08;;;;;;;7.45;5.05;;;102.90;2227.20;;;;;;5031223;28;20459;-53
2022/04/21 01:53:34;;;;;;;8.30;3.05;;;102.80;2227.20;;;;;;5030869;28;20395;-53
2022/04/21 01:56:00;;;;;;;6.00;3.47;;;102.70;2227.20;;;;;;5031136;28;20029;-53
2022/04/21 01:58:26;;;;;;;6.45;4.35;;;102.70;2227.20;;;;;;5031043;28;20390;-54
2022/04/21 02:00:52;;;;;;;6.97;4.15;;;102.70;2227.20;;;;;;5031027;28;20022;-54
2022/04/21 02:03:18;;;;;;;5.00;3.47;;;102.80;2227.20;;;;;;5030962;28;20526;-53
2022/04/21 02:05:43;;;;;;;4.40;3.65;;;102.50;2227.20;;;;;;5030577;28;20026;-53
2022/04/21 02:08:09;;;;;;;6.28;2.90;;;102.40;2227.20;;;;;;5030831;28;20033;-53
2022/04/21 02:10:35;;;;;;;9.85;4.55;;;77.70;2227.20;;;;;;5030865;28;20076;-53
2022/04/21 02:13:01;;;;;;;9.68;3.35;;;77.60;2227.20;;;;;;5030678;28;20035;-53
2022/04/21 02:15:27;;;;;;;3.22;2.10;;;77.70;2227.20;;;;;;5031011;28;20022;-54
2022/04/21 02:17:53;;;;;;;5.32;3.58;;;102.40;2227.20;;;;;;5030532;28;20037;-54
2022/04/21 02:20:20;;;;;;;6.88;3.78;;;102.40;2227.20;;;;;;5030850;28;20083;-53
2022/04/21 02:22:47;;;;;;;3.08;2.33;;;77.70;2227.20;;;;;;5030132;28;20029;-53
2022/04/21 02:25:14;;;;;;;4.55;2.60;;;77.70;2227.20;;;;;;5029830;28;20033;-54
2022/04/21 02:27:43;;;;;;;4.55;3.25;;;77.60;2227.20;;;;;;5030449;28;20026;-54
2022/04/21 02:30:10;;;;;;;3.55;2.58;;;77.60;2227.20;;;;;;5030854;28;20373;-54
2022/04/21 02:32:36;;;;;;;3.63;3.10;;;77.60;2227.20;;;;;;5030467;28;20529;-54
2022/04/21 02:35:04;;;;;;;6.10;3.25;;;77.70;2227.20;;;;;;5030355;28;20049;-54
2022/04/21 02:37:49;;;;;;;4.88;2.72;;;77.60;2227.20;;;;;;5030498;28;20029;-54
2022/04/21 02:40:16;;;;;;;3.35;2.92;;;77.70;2227.20;;;;;;5030243;28;20045;-54
2022/04/21 02:42:42;;;;;;;4.43;2.70;;;77.60;2227.20;;;;;;5030210;28;20093;-54
2022/04/21 02:45:10;;;;;;;4.88;3.17;;;77.70;2227.20;;;;;;5030341;28;20025;-54
2022/04/21 02:47:36;;;;;;;3.25;2.28;;;77.60;2227.20;;;;;;5030499;28;20115;-54
2022/04/21 02:50:03;;;;;;;4.55;3.08;;;77.50;2227.20;;;;;;5030342;28;20034;-53
2022/04/21 02:52:29;;;;;;;3.13;1.85;;;77.50;2227.20;;;;;;5030352;28;20045;-54
2022/04/21 02:57:40;;;;;;;4.45;2.45;;;77.60;2227.20;;;;;;5030380;28;20044;-54
2022/04/21 03:00:07;;;;;;;3.33;2.03;;;77.60;2227.20;;;;;;5030167;28;20022;-53
2022/04/21 03:02:32;;;;;;;2.55;2.05;;;77.40;2227.20;;;;;;5029817;28;20476;-54
2022/04/21 03:04:58;;;;;;;3.92;2.47;;;77.30;2227.20;;;;;;5030274;28;20029;-53
2022/04/21 03:07:24;;;;;;;4.80;3.30;;;77.20;2227.20;;;;;;5028433;28;20030;-53
2022/04/21 03:09:53;;;;;;;4.72;3.83;;;77.30;2227.20;;;;;;5029803;28;20036;-54
2022/04/21 03:12:18;;;;;;;5.65;2.97;;;77.10;2227.20;;;;;;5030510;28;20025;-53
2022/04/21 03:14:44;;;;;;;3.63;2.17;;;77.00;2227.20;;;;;;5029755;28;20072;-53
2022/04/21 03:17:10;;;;;;;5.90;3.58;;;77.00;2227.20;;;;;;5030037;28;20017;-54
2022/04/21 03:19:38;;;;;;;4.43;1.98;;;77.00;2227.20;;;;;;5030225;28;20025;-53
2022/04/21 03:24:48;;;;;;;2.70;2.10;;;77.30;2227.20;;;;;;5030120;28;20037;-53
2022/04/21 03:27:14;;;;;;;4.38;3.22;;;77.30;2227.20;;;;;;5029651;28;20026;-53
2022/04/21 03:29:40;;;;;;;3.20;2.10;;;77.20;2227.20;;;;;;5029834;28;20416;-55
2022/04/21 03:32:11;;;;;;;2.30;2.03;;;77.10;2227.20;;;;;;5029963;28;20021;-53
2022/04/21 03:34:42;;;;;;;4.03;3.03;;;76.90;2227.20;;;;;;5030112;28;20053;-54
2022/04/21 03:37:10;;;;;;;5.40;2.72;;;77.00;2227.20;;;;;;5033487;28;20117;-53
2022/04/21 03:39:36;;;;;;;4.28;1.98;;;77.00;2227.20;;;;;;5033971;28;20033;-52
2022/04/21 03:42:04;;;;;;;4.45;2.13;;;76.80;2227.20;;;;;;5033547;28;20029;-53
2022/04/21 03:44:30;;;;;;;4.60;2.75;;;76.90;2227.20;;;;;;5033650;28;20025;-53
2022/04/21 03:46:58;;;;;;;2.90;1.17;;;77.00;2227.20;;;;;;5033625;28;20025;-53
2022/04/21 03:49:29;;;;;;;1.85;1.70;;;77.20;2227.20;;;;;;5033377;28;20044;-53
2022/04/21 03:51:56;;;;;;;6.55;3.25;;;77.20;2227.20;;;;;;5033496;28;20029;-53
2022/04/21 03:54:23;;;;;;;4.40;3.17;;;77.20;2227.20;;;;;;5033357;28;20084;-53
2022/04/21 03:56:50;;;;;;;11.05;4.53;;;77.30;2227.20;;;;;;5033349;28;20472;-53
2022/04/21 03:59:17;;;;;;;9.55;4.57;;;77.50;2227.20;;;;;;5033109;28;20045;-53
2022/04/21 04:01:43;;;;;;;4.15;3.17;;;77.70;2227.20;;;;;;5033187;28;20024;-53
2022/04/21 04:04:10;;;;;;;3.55;3.15;;;77.70;2227.20;;;;;;5033052;28;20029;-54
2022/04/21 04:12:04;;;;;;;8.55;4.50;;;102.90;2227.20;;;;;;5033064;28;20058;-53
2022/04/21 04:14:29;;;;;;;5.85;4.07;;;102.90;2227.20;;;;;;5033067;28;20034;-53
2022/04/21 04:16:56;;;;;;;9.73;6.10;;;103.00;2227.20;;;;;;5033008;28;20033;-53
2022/04/21 04:19:21;;;;;;;12.82;6.18;;;103.00;2227.20;;;;;;5033043;28;20037;-53
2022/04/21 04:21:47;;;;;;;7.65;4.90;;;103.10;2227.20;;;;;;5032858;28;20483;-53
2022/04/21 04:24:13;;;;;;;10.35;4.38;;;103.10;2227.20;;;;;;5032718;28;20032;-53
2022/04/21 04:26:38;;;;;;;5.82;5.20;;;103.20;2227.20;;;;;;5032856;28;20028;-52
2022/04/21 04:29:04;;;;;;;6.20;3.35;;;103.20;2227.20;;;;;;5032638;28;20033;-53
2022/04/21 04:31:31;;;;;;;4.13;2.08;;;103.30;2227.20;;;;;;5031481;28;20030;-55
2022/04/21 04:33:57;;;;;;;3.80;2.90;;;128.00;2252.80;;;;;;5032180;28;20099;-53
2022/04/21 04:36:23;;;;;;;7.38;3.67;;;128.00;2252.80;;;;;;5032427;28;20045;-54
2022/04/21 04:38:49;;;;;;;3.65;2.03;;;103.30;2227.20;;;;;;5032706;28;20041;-53
2022/04/21 04:44:00;;;;;;;5.00;3.55;;;103.30;2227.20;;;;;;5032728;28;20075;-53
2022/04/21 04:46:42;;;;;;;2.97;2.08;;;103.10;2227.20;;;;;;5031091;28;20061;-54
2022/04/21 04:49:09;;;;;;;5.13;2.85;;;102.80;2227.20;;;;;;5032298;28;20064;-52
2022/04/21 04:51:41;;;;;;;5.97;2.53;;;102.70;2227.20;;;;;;5032207;28;20033;-53
2022/04/21 04:54:12;;;;;;;3.42;2.63;;;102.70;2227.20;;;;;;5032351;28;20029;-53
2022/04/21 04:56:40;;;;;;;5.03;2.55;;;102.80;2227.20;;;;;;5032323;28;20021;-53
2022/04/21 04:59:06;;;;;;;4.40;2.42;;;103.00;2227.20;;;;;;5032284;28;20045;-53
2022/04/21 05:01:39;;;;;;;5.35;3.10;;;103.30;2227.20;;;;;;5031220;28;20018;-52
2022/04/21 05:04:09;;;;;;;10.05;6.50;;;128.10;2252.80;;;;;;5031543;28;20037;-52
2022/04/21 05:06:43;;;;;;;5.07;3.85;;;128.20;2252.80;;;;;;5031639;28;20034;-53
2022/04/21 05:09:11;;;;;;;5.90;3.53;;;128.40;2252.80;;;;;;5031799;28;20025;-54
2022/04/21 05:11:39;;;;;;;5.45;3.75;;;128.40;2252.80;;;;;;5031836;28;20579;-53
2022/04/21 05:14:07;;;;;;;7.13;4.30;;;128.40;2252.80;;;;;;5031932;28;20033;-54
2022/04/21 05:16:33;;;;;;;6.95;2.28;;;128.40;2252.80;;;;;;5031653;28;20060;-60
2022/04/21 05:18:59;;;;;;;3.75;3.03;;;128.70;2252.80;;;;;;5031798;28;20503;-56
2022/04/21 05:21:25;;;;;;;2.95;2.28;;;128.90;2252.80;;;;;;5031453;28;20036;-58
2022/04/21 05:23:59;;;;;;;3.80;2.60;;;154.00;2252.80;;;;;;5031657;28;20030;-60
2022/04/21 05:26:26;;;;;;;4.93;3.40;;;154.20;2252.80;;;;;;5031513;28;20025;-61
2022/04/21 05:28:55;;;;;;;6.10;3.88;;;154.50;2252.80;;;;;;5031678;28;20444;-60
2022/04/21 05:31:22;;;;;;;4.97;3.60;;;179.50;2252.80;;;;;;5031248;28;20449;-61
2022/04/21 05:33:49;;;;;;;4.28;2.83;;;179.50;2252.80;;;;;;5031450;28;20033;-60
2022/04/21 05:36:15;;;;;;;4.38;2.42;;;179.40;2252.80;;;;;;5031379;28;20100;-61
2022/04/21 05:38:41;;;;;;;3.70;2.50;;;179.20;2252.80;;;;;;5030985;28;20080;-60
2022/04/21 05:41:08;;;;;;;6.57;2.75;;;179.30;2252.80;;;;;;5031300;28;20021;-61
2022/04/21 05:43:47;;;;;;;3.60;2.35;;;179.30;2252.80;;;;;;5031416;28;20440;-61
2022/04/21 05:46:14;;;;;;;3.15;2.00;;;179.60;2252.80;;;;;;5031197;28;20021;-60
2022/04/21 05:48:41;;;;;;;5.15;2.75;;;179.70;2252.80;;;;;;5031296;28;20113;-58
2022/04/21 05:51:09;;;;;;;8.75;4.05;;;179.90;2252.80;;;;;;5031059;28;20025;-61
2022/04/21 05:53:37;;;;;;;8.60;3.20;;;180.10;2252.80;;;;;;5031133;28;20454;-60
2022/04/21 05:56:08;;;;;;;8.98;3.63;;;180.00;2252.80;;;;;;5030878;28;20037;-55
2022/04/21 05:58:36;;;;;;;6.57;3.45;;;180.10;2252.80;;;;;;5030613;28;20050;-60
2022/04/21 06:01:06;;;;;;;3.75;2.92;;;204.90;2252.80;;;;;;5030734;28;20036;-60
2022/04/21 06:03:32;;;;;;;5.40;3.20;;;205.20;2252.80;;;;;;5030607;28;20603;-61
2022/04/21 06:05:58;;;;;;;4.13;2.95;;;205.10;2252.80;;;;;;5030884;28;20108;-61
2022/04/21 06:08:24;;;;;;;4.18;3.20;;;205.20;2252.80;;;;;;5030456;28;20056;-61
2022/04/21 06:10:50;;;;;;;10.18;5.22;;;205.30;2252.80;;;;;;5030535;28;20025;-61
2022/04/21 06:13:15;;;;;;;6.75;4.85;;;205.50;2252.80;;;;;;5030909;28;20080;-58
2022/04/21 06:15:43;;;;;;;8.05;3.70;;;256.00;2252.80;;;;;;5030496;28;20523;-58
2022/04/21 06:18:09;;;;;;;5.15;3.20;;;256.60;2252.80;;;;;;5030695;28;20111;-59
2022/04/21 06:20:35;;;;;;;4.30;2.53;;;281.80;2278.40;;;;;;5030414;28;20492;-55
2022/04/21 06:23:01;;;;;;;3.75;3.05;;;281.60;2278.40;;;;;;5030218;28;20053;-55
2022/04/21 06:25:27;;;;;;;6.18;3.08;;;282.00;2278.40;;;;;;5030625;28;20028;-54
2022/04/21 06:27:52;;;;;;;3.80;2.88;;;281.60;2278.40;;;;;;5030570;28;20033;-60
2022/04/21 06:30:19;;;;;;;4.13;2.35;;;282.00;2278.40;;;;;;5030635;28;20021;-56
2022/04/21 06:32:45;;;;;;;5.50;3.03;;;307.40;2304.00;;;;;;5030138;28;20029;-58
2022/04/21 06:35:11;;;;;;;3.60;2.35;;;307.20;2304.00;;;;;;5030296;28;20049;-59
2022/04/21 06:37:37;;;;;;;5.60;3.40;;;358.40;2150.40;;;;;;5030333;28;20357;-55
2022/04/21 06:40:04;;;;;;;3.75;2.50;;;384.40;1894.40;;;;;;5030125;28;20037;-59
2022/04/21 06:42:30;;;;;;;5.82;2.40;;;384.00;1894.40;;;;;;5029144;28;20038;-54
2022/04/21 06:50:24;;;;;;;6.57;4.28;;;358.50;1971.20;;;;;;5030335;28;20024;-59
2022/04/21 06:52:50;;;;;;;16.67;9.40;;;333.60;2048.00;;;;;;5030562;28;20026;-58
2022/04/21 06:55:15;;;;;;;13.02;7.50;;;358.80;1996.80;;;;;;5030214;28;20376;-62
2022/04/21 06:57:42;;;;;;;14.48;8.25;;;409.70;1894.40;;;;;;5029030;28;20072;-58
2022/04/21 07:00:09;;;;;;;17.17;9.13;;;435.30;1740.80;;;;;;5030226;28;20108;-54
2022/04/21 07:02:38;;;;;;;10.73;7.25;;;410.50;1740.80;;;;;;5029742;28;20056;-56
2022/04/21 07:05:05;;;;;;;9.73;5.05;;;410.30;1792.00;;;;;;5029865;28;20029;-56
2022/04/21 07:07:31;;;;;;;10.55;6.55;;;410.00;1766.40;;;;;;5029831;28;20537;-57
2022/04/21 07:09:57;;;;;;;10.88;6.40;;;409.70;1817.60;;;;;;5031272;28;20033;-58
2022/04/21 07:12:27;;;;;;;10.25;6.32;;;409.60;1817.60;;;;;;5034121;28;20375;-61
2022/04/21 07:14:55;;;;;;;6.90;4.90;;;384.40;1792.00;;;;;;5033956;28;20049;-59
2022/04/21 07:17:21;;;;;;;8.50;5.10;;;359.00;1843.20;;;;;;5033814;28;20413;-59
2022/04/21 07:19:48;;;;;;;6.15;4.75;;;359.20;1817.60;;;;;;5034079;28;20068;-54
2022/04/21 07:22:14;;;;;;;6.50;3.67;;;359.20;1817.60;;;;;;5033962;28;20152;-61
2022/04/21 07:24:39;;;;;;;9.82;5.72;;;384.60;1740.80;;;;;;5033964;28;20483;-54
2022/04/21 07:27:05;;;;;;;10.23;4.65;;;409.70;1766.40;;;;;;5033898;28;20518;-58
2022/04/21 07:29:31;;;;;;;8.00;4.85;;;410.00;1740.80;;;;;;5033759;28;20495;-55
2022/04/21 07:31:57;;;;;;;9.60;5.80;;;436.10;1664.00;;;;;;5033927;28;20025;-58
2022/04/21 07:34:23;;;;;;;6.40;5.00;;;461.30;1587.20;;;;;;5033327;28;20496;-60
2022/04/21 07:36:49;;;;;;;9.55;6.15;;;435.90;1587.20;;;;;;5034151;28;20041;-60
2022/04/21 07:39:15;;;;;;;9.88;5.72;;;435.70;1612.80;;;;;;5033225;28;20091;-64
2022/04/21 07:41:41;;;;;;;9.40;7.00;;;461.00;1612.80;;;;;;5033377;28;20503;-60
2022/04/21 07:44:07;;;;;;;10.80;7.38;;;461.30;1536.00;;;;;;5033661;28;20025;-57
2022/04/21 07:46:33;;;;;;;12.73;7.13;;;487.10;1484.80;;;;;;5033482;28;20025;-59
2022/04/21 07:51:43;;;;;;;17.40;10.40;;;486.40;1536.00;;;;;;5033548;28;20035;-60
2022/04/21 07:54:09;;;;;;;8.85;6.65;;;461.60;1536.00;;;;;;5033382;28;20029;-60
2022/04/21 07:56:36;;;;;;;13.30;8.70;;;461.60;1536.00;;;;;;5033280;28;20017;-58
2022/04/21 07:59:02;;;;;;;11.82;7.50;;;461.60;1536.00;;;;;;5033085;28;20079;-61
2022/04/21 08:01:28;;;;;;;11.20;7.78;;;460.90;1587.20;;;;;;5033237;28;20492;-57
2022/04/21 08:03:53;;;;;;;14.10;8.90;;;410.20;1689.60;;;;;;5032817;28;20060;-60
2022/04/21 08:06:19;;;;;;;13.02;7.88;;;410.10;1715.20;;;;;;5033343;28;20064;-58
2022/04/21 08:08:45;;;;;;;12.65;9.20;;;384.70;1766.40;;;;;;5032819;28;20042;-56
2022/04/21 08:11:10;;;;;;;14.95;9.07;;;384.10;1843.20;;;;;;5032741;28;20034;-58
2022/04/21 08:13:36;;;;;;;16.80;10.13;;;384.40;1843.20;;;;;;5033058;28;20026;-60
2022/04/21 08:16:02;;;;;;;12.32;8.23;;;384.90;1817.60;;;;;;5032982;28;20057;-59
2022/04/21 08:18:28;;;;;;;13.98;8.18;;;409.80;1843.20;;;;;;5033125;28;20037;-56
2022/04/21 08:20:58;;;;;;;11.82;8.23;;;410.50;1792.00;;;;;;5032908;28;20021;-63
2022/04/21 08:23:25;;;;;;;14.20;8.75;;;410.30;1766.40;;;;;;5032870;28;20029;-60
2022/04/21 08:34:05;;;;;;;11.13;7.78;;;410.30;1817.60;;;;;;5032628;28;20087;-57
2022/04/21 08:36:31;;;;;;;17.38;10.43;;;435.20;1766.40;;;;;;5032541;28;20033;-58
2022/04/21 08:38:56;;;;;;;13.68;8.88;;;460.80;1715.20;;;;;;5032690;28;20116;-58
2022/04/21 08:41:27;;;;;;;18.10;8.68;;;461.20;1689.60;;;;;;5032382;28;20474;-59
2022/04/21 08:43:56;;;;;;;9.90;7.38;;;435.80;1715.20;;;;;;5032614;28;20427;-62
2022/04/21 08:46:25;;;;;;;13.68;9.25;;;435.80;1740.80;;;;;;5032556;28;20037;-62
2022/04/21 08:48:53;;;;;;;14.45;7.47;;;461.10;1740.80;;;;;;5032485;28;20087;-61
2022/04/21 08:51:19;;;;;;;14.30;8.55;;;435.70;1715.20;;;;;;5032634;28;20079;-57
2022/04/21 08:53:45;;;;;;;13.77;8.23;;;410.50;1792.00;;;;;;5032077;28;20029;-58
2022/04/21 08:56:12;;;;;;;11.98;7.30;;;436.10;1689.60;;;;;;5032139;28;20022;-59
2022/04/21 08:58:37;;;;;;;13.43;9.00;;;435.70;1715.20;;;;;;5032446;28;20045;-59
2022/04/21 09:01:03;;;;;;;14.20;8.82;;;435.90;1715.20;;;;;;5032162;28;20100;-59
2022/04/21 09:03:33;;;;;;;11.73;7.07;;;461.10;1715.20;;;;;;5031984;28;20064;-58
2022/04/21 09:06:00;;;;;;;11.30;7.30;;;461.20;1715.20;;;;;;5031285;28;20029;-57
2022/04/21 09:08:26;;;;;;;10.65;7.47;;;435.30;1766.40;;;;;;5031866;28;20042;-59
2022/04/21 09:11:09;;;;;;;8.50;5.93;;;435.50;1766.40;;;;;;5031843;28;20017;-58
2022/04/21 09:13:44;;;;;;;9.47;5.67;;;435.90;1766.40;;;;;;5031889;28;20038;-57
2022/04/21 09:16:15;;;;;;;7.20;4.75;;;435.60;1740.80;;;;;;5032102;28;20060;-61
2022/04/21 09:18:42;;;;;;;6.07;4.00;;;435.50;1740.80;;;;;;5031820;28;20481;-59
2022/04/21 09:21:10;;;;;;;5.43;3.63;;;435.60;1715.20;;;;;;5031935;28;20108;-59
2022/04/21 09:23:36;;;;;;;7.68;4.30;;;435.60;1664.00;;;;;;5031671;28;20559;-58
2022/04/21 09:26:13;;;;;;;10.55;6.40;;;435.60;1715.20;;;;;;5031506;28;20124;-62
2022/04/21 09:28:39;;;;;;;7.43;4.65;;;436.10;1715.20;;;;;;5031863;28;20067;-64
2022/04/21 09:31:08;;;;;;;9.27;4.63;;;460.80;1715.20;;;;;;5031784;28;20021;-56
2022/04/21 09:33:41;;;;;;;7.97;5.45;;;435.60;1740.80;;;;;;5030922;28;20034;-57
2022/04/21 09:36:09;;;;;;;7.40;4.50;;;435.70;1740.80;;;;;;5031283;28;20053;-61
2022/04/21 09:38:35;;;;;;;7.70;4.47;;;435.80;1766.40;;;;;;5031279;28;20450;-63
2022/04/21 09:41:07;;;;;;;4.55;2.95;;;435.90;1740.80;;;;;;5031491;28;20059;-57
2022/04/21 09:43:35;;;;;;;6.53;3.33;;;435.90;1664.00;;;;;;5031241;28;20026;-60
2022/04/21 09:46:19;;;;;;;5.43;3.10;;;435.70;1612.80;;;;;;5031213;28;20025;-58
2022/04/21 09:48:48;;;;;;;6.18;3.00;;;460.90;1638.40;;;;;;5031067;28;20034;-61
2022/04/21 09:51:23;;;;;;;3.60;1.90;;;461.20;1561.60;;;;;;5031052;28;20071;-62
2022/04/21 09:53:50;;;;;;;4.03;2.58;;;461.20;1459.20;;;;;;5031444;28;20372;-63
2022/04/21 09:56:16;;;;;;;3.78;1.98;;;461.50;1536.00;;;;;;5031113;28;20040;-61
2022/04/21 09:58:43;;;;;;;3.08;1.83;;;461.30;1433.60;;;;;;5030825;28;20598;-63
2022/04/21 10:01:09;;;;;;;2.63;1.73;;;461.50;1433.60;;;;;;5031040;28;20057;-62
2022/04/21 10:03:35;;;;;;;3.33;1.88;;;486.40;1408.00;;;;;;5030583;28;20045;-62
2022/04/21 10:06:02;;;;;;;2.20;1.65;;;486.40;1356.80;;;;;;5030991;28;20032;-59
2022/04/21 10:08:29;;;;;;;2.92;2.22;;;486.60;1356.80;;;;;;5030806;28;20475;-61
2022/04/21 10:10:56;;;;;;;2.97;1.83;;;486.40;1356.80;;;;;;5030663;28;20530;-59
2022/04/21 10:13:23;;;;;;;2.67;1.45;;;486.40;1356.80;;;;;;5030611;28;20108;-60
2022/04/21 10:15:51;;;;;;;3.17;2.10;;;486.80;1356.80;;;;;;5030750;28;20028;-62
2022/04/21 10:18:18;;;;;;;3.30;1.90;;;487.10;1331.20;;;;;;5030744;28;20040;-58
2022/04/21 10:20:45;;;;;;;2.83;1.45;;;512.10;1305.60;;;;;;5030682;28;20056;-56
2022/04/21 10:23:22;;;;;;;3.95;1.58;;;512.00;1305.60;;;;;;5030533;28;20021;-60
2022/04/21 10:26:01;;;;;;;3.42;1.60;;;486.70;1305.60;;;;;;5030813;28;20025;-59
2022/04/21 10:28:37;;;;;;;1.90;1.35;;;487.10;1280.00;;;;;;5030676;28;20034;-62
2022/04/21 10:31:28;;;;;;;2.55;1.70;;;486.90;1280.00;;;;;;5030611;28;20031;-64
2022/04/21 10:34:05;;;;;;;1.90;1.30;;;512.00;1280.00;;;;;;5030029;28;20029;-62
2022/04/21 10:36:37;;;;;;;2.95;1.73;;;512.60;1280.00;;;;;;5030371;28;20044;-63
2022/04/21 10:39:27;;;;;;;4.10;1.95;;;512.90;1331.20;;;;;;5028934;28;20041;-62
2022/04/21 10:42:14;;;;;;;1.92;1.42;;;512.50;1280.00;;;;;;5030234;28;20029;-57
2022/04/21 10:44:44;;;;;;;2.22;1.30;;;512.60;1203.20;;;;;;5029564;28;20032;-63
2022/04/21 10:47:36;;;;;;;4.15;2.42;;;512.80;1203.20;;;;;;5030191;28;20467;-64
2022/04/21 10:50:10;;;;;;;3.15;1.67;;;512.80;1228.80;;;;;;5030135;28;20113;-63
2022/04/21 10:58:35;;;;;;;1.92;1.60;;;487.30;1254.40;;;;;;5030290;28;20036;-64
2022/04/21 11:01:11;;;;;;;2.25;1.38;;;512.40;1228.80;;;;;;5030229;28;20079;-60
2022/04/21 11:03:38;;;;;;;1.20;1.00;;;512.00;1228.80;;;;;;5030124;28;20108;-62
2022/04/21 11:06:27;;;;;;;4.72;2.72;;;487.30;1228.80;;;;;;5029989;28;20132;-65
2022/04/21 11:08:53;;;;;;;2.47;1.73;;;512.40;1203.20;;;;;;5029441;28;20025;-61
2022/04/21 11:11:46;;;;;;;3.70;1.85;;;487.20;1228.80;;;;;;5030200;28;20052;-60
2022/04/21 11:14:27;;;;;;;3.58;2.13;;;487.30;1254.40;;;;;;5029835;28;20379;-63
2022/04/21 11:16:52;;;;;;;2.67;1.88;;;512.40;1228.80;;;;;;5029713;28;20061;-64
2022/04/21 11:19:32;;;;;;;3.50;2.05;;;487.20;1254.40;;;;;;5030139;28;20073;-63
2022/04/21 11:22:08;;;;;;;2.47;1.65;;;487.30;1254.40;;;;;;5029996;28;20040;-62
2022/04/21 11:24:56;;;;;;;2.60;1.45;;;487.30;1254.40;;;;;;5029672;28;20103;-63
2022/04/21 11:27:22;;;;;;;2.90;1.58;;;512.10;1254.40;;;;;;5029096;28;20392;-57
2022/04/21 11:29:49;;;;;;;3.05;2.03;;;512.20;1254.40;;;;;;5030211;28;20025;-62
2022/04/21 11:32:19;;;;;;;2.85;1.52;;;487.30;1280.00;;;;;;5029770;28;20026;-62
2022/04/21 11:35:04;;;;;;;2.88;1.40;;;512.10;1254.40;;;;;;5029517;28;20496;-63
2022/04/21 11:37:52;;;;;;;2.22;1.67;;;537.70;1203.20;;;;;;5029847;28;20029;-59
2022/04/21 11:40:29;;;;;;;2.80;1.65;;;538.20;1254.40;;;;;;5030205;28;20038;-61
2022/04/21 11:42:56;;;;;;;2.38;1.98;;;538.50;1228.80;;;;;;5029774;28;20080;-57
2022/04/21 11:45:35;;;;;;;2.90;1.88;;;538.30;1280.00;;;;;;5029556;28;20056;-64
2022/04/21 11:48:01;;;;;;;3.78;1.83;;;538.20;1228.80;;;;;;5029937;28;20029;-64
2022/04/21 11:50:29;;;;;;;5.65;3.38;;;537.70;1254.40;;;;;;5029775;28;20013;-66
2022/04/21 11:52:57;;;;;;;3.63;2.00;;;537.70;1254.40;;;;;;5029441;28;20025;-66
2022/04/21 11:55:28;;;;;;;7.10;4.43;;;537.70;1254.40;;;;;;5029720;28;20152;-64
2022/04/21 11:57:55;;;;;;;2.22;1.58;;;538.10;1254.40;;;;;;5033089;28;20036;-65
2022/04/21 12:08:44;;;;;;;5.03;2.13;;;537.70;1254.40;;;;;;5033395;28;20095;-64
2022/04/21 12:11:12;;;;;;;1.83;1.42;;;538.00;1228.80;;;;;;5033058;28;20076;-64
2022/04/21 12:13:38;;;;;;;4.78;2.90;;;538.20;1228.80;;;;;;5032935;28;20071;-65
2022/04/21 12:16:04;;;;;;;3.30;2.47;;;537.70;1280.00;;;;;;5032851;28;20372;-65
2022/04/21 12:18:46;;;;;;;2.53;1.60;;;512.60;1254.40;;;;;;5031941;28;20049;-65
2022/04/21 12:21:12;;;;;;;3.45;1.75;;;512.80;1254.40;;;;;;5032838;28;20112;-66
2022/04/21 12:23:38;;;;;;;2.88;2.05;;;538.50;1254.40;;;;;;5032871;28;20094;-65
2022/04/21 12:26:06;;;;;;;2.85;1.70;;;538.00;1254.40;;;;;;5032680;28;20026;-65
2022/04/21 12:28:46;;;;;;;2.65;1.95;;;537.60;1254.40;;;;;;5032461;28;20032;-62
2022/04/21 12:31:17;;;;;;;2.92;2.15;;;537.90;1228.80;;;;;;5032629;28;20071;-63
2022/04/21 12:33:43;;;;;;;2.78;1.92;;;538.30;1254.40;;;;;;5032357;28;20502;-67
2022/04/21 12:36:08;;;;;;;3.38;1.63;;;537.80;1254.40;;;;;;5031002;28;20053;-65
2022/04/21 12:38:54;;;;;;;3.20;2.08;;;512.90;1254.40;;;;;;5032407;28;20030;-68
2022/04/21 12:41:20;;;;;;;3.70;2.38;;;512.90;1228.80;;;;;;5033003;28;20029;-60
2022/04/21 12:43:48;;;;;;;2.30;1.60;;;538.10;1331.20;;;;;;5032621;28;20494;-66
2022/04/21 12:46:14;;;;;;;2.15;1.52;;;537.60;1305.60;;;;;;5032354;28;20025;-62
2022/04/21 12:48:47;;;;;;;1.73;1.17;;;512.80;1254.40;;;;;;5032483;28;20463;-61
2022/04/21 12:51:19;;;;;;;;;;;512.80;1280.00;;;;;;5032630;28;20549;-63
2022/04/21 12:53:55;;;;;;;3.28;1.70;;;512.60;1280.00;;;;;;5032318;28;19994;-63
2022/04/21 12:56:35;;;;;;;3.08;1.70;;;512.50;1305.60;;;;;;5032441;28;20048;-56
2022/04/21 12:59:02;;;;;;;3.30;1.90;;;512.80;1305.60;;;;;;5032168;28;20120;-62
2022/04/21 13:01:28;;;;;;;2.30;1.67;;;512.90;1305.60;;;;;;5032385;28;20017;-66
2022/04/21 13:03:54;;;;;;;6.20;3.03;;;512.90;1305.60;;;;;;5031844;28;20033;-60
2022/04/21 13:06:30;;;;;;;2.83;1.67;;;512.90;1331.20;;;;;;5032175;28;20025;-60
2022/04/21 13:08:57;;;;;;;3.83;2.40;;;512.80;1280.00;;;;;;5030209;28;20120;-59
2022/04/21 13:11:24;;;;;;;3.63;2.22;;;512.60;1305.60;;;;;;5031937;28;20380;-57
2022/04/21 13:13:51;;;;;;;3.10;1.70;;;512.10;1331.20;;;;;;5032087;28;20026;-64
2022/04/21 13:16:18;;;;;;;3.33;2.17;;;512.10;1331.20;;;;;;5031934;28;20112;-63